createdAt,value
2019-05-21T00:01:05.380Z,16.47
2019-05-21T00:03:38.803Z,15.67
2019-05-21T00:06:12.238Z,15.17
2019-05-21T00:08:45.659Z,15.13
2019-05-21T00:11:19.095Z,15.67
2019-05-21T00:13:52.528Z,13.97
2019-05-21T00:16:25.960Z,14.50
2019-05-21T00:18:59.376Z,14.13
2019-05-21T00:21:32.823Z,12.97
2019-05-21T00:24:06.383Z,13.20
2019-05-21T00:26:39.819Z,12.40
2019-05-21T00:29:49.603Z,13.37
2019-05-21T00:32:59.479Z,13.80
2019-05-21T00:36:09.004Z,12.80
2019-05-21T00:39:18.503Z,13.40
2019-05-21T00:42:00.815Z,11.77
2019-05-21T00:44:40.823Z,11.37
2019-05-21T00:47:14.527Z,11.50
2019-05-21T00:49:47.961Z,11.03
2019-05-21T00:52:21.392Z,11.90
2019-05-21T00:55:07.340Z,11.77
2019-05-21T00:57:40.773Z,11.40
2019-05-21T01:00:14.427Z,11.30
2019-05-21T01:02:48.096Z,11.80
2019-05-21T01:05:21.514Z,11.80
2019-05-21T01:07:54.948Z,12.10
2019-05-21T01:10:28.373Z,11.50
2019-05-21T01:13:01.802Z,12.20
2019-05-21T01:15:35.219Z,11.50
2019-05-21T01:18:08.734Z,12.23
2019-05-21T01:20:42.165Z,10.77
2019-05-21T01:23:15.604Z,11.23
2019-05-21T01:25:49.028Z,11.23
2019-05-21T01:28:22.472Z,11.10
2019-05-21T01:30:55.892Z,11.10
2019-05-21T01:33:29.336Z,11.03
2019-05-21T01:36:02.771Z,11.33
2019-05-21T01:38:36.207Z,10.57
2019-05-21T01:41:09.638Z,10.17
2019-05-21T01:43:43.072Z,10.57
2019-05-21T01:46:16.496Z,9.50
2019-05-21T01:48:49.952Z,9.67
2019-05-21T01:51:23.379Z,9.33
2019-05-21T01:53:56.807Z,8.50
2019-05-21T01:56:30.223Z,7.80
2019-05-21T01:59:04.496Z,8.07
2019-05-21T02:01:37.915Z,7.93
2019-05-21T02:04:11.363Z,7.47
2019-05-21T02:06:45.360Z,8.30
2019-05-21T02:09:19.016Z,8.70
2019-05-21T02:11:52.452Z,8.10
2019-05-21T02:14:25.906Z,9.10
2019-05-21T02:16:59.319Z,8.33
2019-05-21T02:19:32.747Z,8.07
2019-05-21T02:22:06.164Z,8.23
2019-05-21T02:24:39.760Z,8.40
2019-05-21T02:27:13.256Z,8.47
2019-05-21T02:29:46.733Z,8.10
2019-05-21T02:32:20.188Z,8.27
2019-05-21T02:34:53.802Z,8.53
2019-05-21T02:37:27.387Z,9.43
2019-05-21T02:40:01.191Z,9.30
2019-05-21T02:42:34.685Z,10.10
2019-05-21T02:45:09.361Z,9.27
2019-05-21T02:47:42.850Z,9.50
2019-05-21T02:50:16.822Z,9.30
2019-05-21T02:52:50.316Z,9.27
2019-05-21T02:55:23.741Z,9.00
2019-05-21T02:57:57.166Z,9.63
2019-05-21T03:00:38.639Z,9.20
2019-05-21T03:03:14.156Z,8.77
2019-05-21T03:05:47.587Z,8.40
2019-05-21T03:08:21.011Z,7.93
2019-05-21T03:10:54.507Z,9.03
2019-05-21T03:13:27.928Z,8.53
2019-05-21T03:16:01.368Z,8.07
2019-05-21T03:18:34.787Z,7.90
2019-05-21T03:21:08.211Z,7.37
2019-05-21T03:23:41.662Z,7.53
2019-05-21T03:26:15.153Z,6.83
2019-05-21T03:28:48.559Z,7.20
2019-05-21T03:31:21.992Z,6.77
2019-05-21T03:33:55.461Z,6.30
2019-05-21T03:36:33.493Z,6.30
2019-05-21T03:39:05.392Z,6.00
2019-05-21T03:41:38.819Z,5.70
2019-05-21T03:44:12.241Z,5.57
2019-05-21T03:46:45.940Z,5.70
2019-05-21T03:49:19.828Z,5.50
2019-05-21T03:51:53.377Z,5.23
2019-05-21T03:54:26.790Z,5.63
2019-05-21T03:57:00.212Z,4.60
2019-05-21T03:59:33.631Z,4.90
2019-05-21T04:02:07.063Z,4.80
2019-05-21T04:04:40.497Z,4.30
2019-05-21T04:07:13.914Z,4.03
2019-05-21T04:09:47.362Z,3.77
2019-05-21T04:12:20.787Z,3.50
2019-05-21T04:15:02.007Z,3.40
2019-05-21T04:17:37.207Z,3.23
2019-05-21T04:20:11.560Z,3.00
2019-05-21T04:22:54.144Z,3.50
2019-05-21T04:25:27.577Z,3.50
2019-05-21T04:28:01.170Z,2.80
2019-05-21T04:30:34.665Z,3.03
2019-05-21T04:33:08.147Z,3.40
2019-05-21T04:35:41.585Z,2.77
2019-05-21T04:38:14.996Z,2.53
2019-05-21T04:40:48.428Z,2.60
2019-05-21T04:43:21.845Z,2.30
2019-05-21T04:45:55.283Z,2.30
2019-05-21T04:48:28.704Z,2.10
2019-05-21T04:51:02.136Z,1.80
2019-05-21T04:53:35.547Z,2.13
2019-05-21T04:56:08.975Z,1.70
2019-05-21T04:58:42.404Z,1.60
2019-05-21T05:01:15.844Z,1.70
2019-05-21T05:03:49.270Z,1.50
2019-05-21T05:06:22.691Z,3.70
2019-05-21T05:08:56.276Z,1.50
2019-05-21T05:11:29.738Z,1.60
2019-05-21T05:14:03.681Z,1.90
2019-05-21T05:16:37.108Z,1.80
2019-05-21T05:19:10.531Z,1.47
2019-05-21T05:21:43.955Z,2.27
2019-05-21T05:24:17.381Z,2.00
2019-05-21T05:26:50.869Z,1.30
2019-05-21T05:29:24.313Z,1.40
2019-05-21T05:31:57.748Z,1.40
2019-05-21T05:34:31.172Z,1.20
2019-05-21T05:37:04.952Z,1.20
2019-05-21T05:39:38.371Z,1.73
2019-05-21T05:42:11.805Z,2.10
2019-05-21T05:44:45.220Z,1.33
2019-05-21T05:47:18.655Z,1.47
2019-05-21T05:49:54.284Z,0.80
2019-05-21T05:52:27.708Z,0.80
2019-05-21T05:55:01.126Z,0.70
2019-05-21T05:57:34.568Z,0.90
2019-05-21T06:00:10.600Z,0.80
2019-05-21T06:02:44.029Z,0.90
2019-05-21T06:05:17.819Z,0.77
2019-05-21T06:07:59.321Z,0.90
2019-05-21T06:10:26.384Z,0.70
2019-05-21T06:12:59.824Z,0.90
2019-05-21T06:15:33.520Z,0.80
2019-05-21T06:18:06.961Z,0.80
2019-05-21T06:20:40.524Z,0.67
2019-05-21T06:23:13.961Z,0.60
2019-05-21T06:25:47.380Z,1.10
2019-05-21T06:28:20.812Z,0.90
2019-05-21T06:30:54.236Z,0.70
2019-05-21T06:33:27.689Z,1.00
2019-05-21T06:36:01.103Z,0.90
2019-05-21T06:38:34.636Z,1.30
2019-05-21T06:41:08.078Z,1.00
2019-05-21T06:43:41.503Z,0.70
2019-05-21T06:46:14.924Z,0.70
2019-05-21T06:48:48.382Z,0.70
2019-05-21T06:51:21.796Z,0.80
2019-05-21T06:53:55.406Z,0.60
2019-05-21T06:56:28.811Z,0.70
2019-05-21T06:59:02.522Z,0.70
2019-05-21T07:01:36.016Z,0.70
2019-05-21T07:04:09.455Z,0.60
2019-05-21T07:06:44.761Z,0.63
2019-05-21T07:09:18.035Z,0.70
2019-05-21T07:11:51.445Z,0.67
2019-05-21T07:14:24.893Z,0.60
2019-05-21T07:16:58.304Z,0.50
2019-05-21T07:19:31.737Z,0.60
2019-05-21T07:22:12.815Z,0.70
2019-05-21T07:24:40.827Z,0.60
2019-05-21T07:27:14.299Z,0.50
2019-05-21T07:29:47.720Z,0.70
2019-05-21T07:32:21.180Z,0.70
2019-05-21T07:34:54.660Z,0.80
2019-05-21T07:37:28.108Z,0.80
2019-05-21T07:40:01.688Z,0.70
2019-05-21T07:42:35.152Z,0.60
2019-05-21T07:45:09.551Z,0.60
2019-05-21T07:47:42.968Z,1.60
2019-05-21T07:50:16.761Z,0.50
2019-05-21T07:52:50.203Z,0.70
2019-05-21T07:55:23.701Z,2.53
2019-05-21T07:57:57.140Z,0.70
2019-05-21T08:00:30.639Z,0.60
2019-05-21T08:03:04.064Z,0.80
2019-05-21T08:05:37.540Z,0.63
2019-05-21T08:08:10.982Z,0.60
2019-05-21T08:10:44.670Z,0.60
2019-05-21T08:13:18.105Z,0.80
2019-05-21T08:15:51.594Z,0.70
2019-05-21T08:18:25.019Z,0.87
2019-05-21T08:20:58.446Z,0.83
2019-05-21T08:23:31.871Z,0.77
2019-05-21T08:26:05.627Z,0.70
2019-05-21T08:28:39.129Z,0.70
2019-05-21T08:31:12.549Z,0.80
2019-05-21T08:33:45.975Z,0.83
2019-05-21T08:36:19.476Z,0.70
2019-05-21T08:38:52.942Z,0.70
2019-05-21T08:41:26.419Z,1.30
2019-05-21T08:43:59.851Z,0.80
2019-05-21T08:46:33.279Z,1.10
2019-05-21T08:49:06.713Z,1.03
2019-05-21T08:51:40.123Z,0.70
2019-05-21T08:54:13.656Z,1.00
2019-05-21T08:56:47.153Z,1.00
2019-05-21T08:59:20.576Z,0.90
2019-05-21T09:01:58.596Z,0.90
2019-05-21T09:04:45.295Z,0.90
2019-05-21T09:07:04.289Z,0.93
2019-05-21T09:09:49.415Z,0.87
2019-05-21T09:12:13.210Z,0.80
2019-05-21T09:14:46.881Z,0.70
2019-05-21T09:17:20.304Z,0.83
2019-05-21T09:19:53.824Z,0.90
2019-05-21T09:22:27.607Z,0.80
2019-05-21T09:25:01.048Z,0.90
2019-05-21T09:27:35.680Z,1.00
2019-05-21T09:30:10.544Z,1.10
2019-05-21T09:32:43.957Z,1.03
2019-05-21T09:35:17.395Z,1.10
2019-05-21T09:37:50.811Z,1.10
2019-05-21T09:40:25.572Z,1.23
2019-05-21T09:42:59.003Z,1.27
2019-05-21T09:45:32.436Z,1.20
2019-05-21T09:48:05.892Z,1.30
2019-05-21T09:50:39.316Z,1.60
2019-05-21T09:53:12.732Z,1.40
2019-05-21T09:55:46.175Z,1.50
2019-05-21T09:58:21.227Z,1.50
2019-05-21T10:01:02.004Z,1.43
2019-05-21T10:03:52.016Z,1.50
2019-05-21T10:06:25.516Z,1.80
2019-05-21T10:08:58.946Z,1.53
2019-05-21T10:11:32.360Z,1.50
2019-05-21T10:14:05.856Z,1.60
2019-05-21T10:16:39.267Z,1.63
2019-05-21T10:19:12.695Z,1.83
2019-05-21T10:21:46.120Z,2.10
2019-05-21T10:24:19.556Z,2.30
2019-05-21T10:26:52.985Z,2.57
2019-05-21T10:29:26.470Z,3.00
2019-05-21T10:31:59.882Z,2.70
2019-05-21T10:34:33.312Z,3.20
2019-05-21T10:37:06.787Z,2.90
2019-05-21T10:39:40.546Z,3.70
2019-05-21T10:42:13.954Z,3.43
2019-05-21T10:44:47.447Z,3.63
2019-05-21T10:47:21.018Z,3.77
2019-05-21T10:49:54.460Z,4.00
2019-05-21T10:52:27.868Z,4.23
2019-05-21T10:55:01.339Z,4.00
2019-05-21T10:57:34.752Z,4.60
2019-05-21T11:00:12.222Z,4.40
2019-05-21T11:02:50.044Z,4.50
2019-05-21T11:05:28.714Z,4.70
2019-05-21T11:08:22.244Z,5.30
2019-05-21T11:10:35.407Z,5.30
2019-05-21T11:13:08.999Z,5.00
2019-05-21T11:15:42.500Z,6.10
2019-05-21T11:18:15.989Z,5.20
2019-05-21T11:20:49.620Z,5.30
2019-05-21T11:23:23.131Z,5.43
2019-05-21T11:25:56.555Z,5.67
2019-05-21T11:28:29.992Z,6.50
2019-05-21T11:31:03.619Z,5.80
2019-05-21T11:33:37.061Z,6.60
2019-05-21T11:36:10.564Z,7.53
2019-05-21T11:38:43.992Z,7.10
2019-05-21T11:41:17.878Z,6.67
2019-05-21T11:43:51.300Z,7.50
2019-05-21T11:46:24.748Z,6.53
2019-05-21T11:48:58.165Z,6.87
2019-05-21T11:51:31.596Z,6.03
2019-05-21T11:54:05.089Z,7.70
2019-05-21T11:56:38.546Z,9.37
2019-05-21T11:59:12.054Z,10.23
2019-05-21T12:01:45.623Z,6.47
2019-05-21T12:04:19.054Z,6.43
2019-05-21T12:06:52.480Z,7.40
2019-05-21T12:09:25.912Z,7.17
2019-05-21T12:12:00.468Z,7.83
2019-05-21T12:14:33.895Z,6.90
2019-05-21T12:17:07.328Z,6.47
2019-05-21T12:19:40.779Z,7.10
2019-05-21T12:22:14.211Z,6.97
2019-05-21T12:24:47.637Z,6.77
2019-05-21T12:27:21.073Z,6.93
2019-05-21T12:29:54.525Z,8.50
2019-05-21T12:32:28.012Z,6.60
2019-05-21T12:35:01.429Z,7.27
2019-05-21T12:37:35.124Z,6.87
2019-05-21T12:40:09.280Z,7.77
2019-05-21T12:42:42.723Z,7.63
2019-05-21T12:45:16.543Z,6.80
2019-05-21T12:47:50.687Z,7.37
2019-05-21T12:50:25.242Z,7.97
2019-05-21T12:52:58.669Z,7.97
2019-05-21T12:55:32.086Z,7.47
2019-05-21T12:58:05.549Z,8.00
2019-05-21T13:00:39.597Z,8.00
2019-05-21T13:03:13.038Z,8.13
2019-05-21T13:05:46.472Z,8.10
2019-05-21T13:08:19.908Z,7.50
2019-05-21T13:10:53.333Z,7.60
2019-05-21T13:13:26.921Z,7.60
2019-05-21T13:16:00.345Z,8.27
2019-05-21T13:18:33.781Z,7.97
2019-05-21T13:21:08.572Z,7.90
2019-05-21T13:23:42.404Z,7.87
2019-05-21T13:26:15.824Z,9.30
2019-05-21T13:28:49.262Z,8.60
2019-05-21T13:31:22.701Z,8.70
2019-05-21T13:33:56.208Z,8.27
2019-05-21T13:36:29.643Z,8.53
2019-05-21T13:39:04.778Z,7.90
2019-05-21T13:41:38.215Z,7.97
2019-05-21T13:44:11.654Z,7.70
2019-05-21T13:46:45.209Z,7.17
2019-05-21T13:49:18.624Z,7.77
2019-05-21T13:51:52.103Z,7.93
2019-05-21T13:54:25.524Z,8.10
2019-05-21T13:56:59.126Z,7.97
2019-05-21T13:59:32.578Z,8.63
2019-05-21T14:02:07.755Z,7.60
2019-05-21T14:04:41.229Z,7.33
2019-05-21T14:07:14.670Z,6.97
2019-05-21T14:09:48.090Z,7.40
2019-05-21T14:12:21.515Z,6.80
2019-05-21T14:14:55.215Z,7.33
2019-05-21T14:17:28.648Z,7.00
2019-05-21T14:20:02.076Z,6.90
2019-05-21T14:22:36.632Z,6.80
2019-05-21T14:25:10.563Z,7.47
2019-05-21T14:27:45.191Z,7.10
2019-05-21T14:30:19.300Z,6.30
2019-05-21T14:32:52.958Z,6.07
2019-05-21T14:35:26.388Z,8.20
2019-05-21T14:37:59.880Z,6.20
2019-05-21T14:40:33.735Z,6.50
2019-05-21T14:43:07.177Z,5.90
2019-05-21T14:45:40.585Z,5.80
2019-05-21T14:48:14.022Z,5.47
2019-05-21T14:50:47.431Z,7.03
2019-05-21T14:53:20.865Z,6.33
2019-05-21T14:55:54.292Z,5.63
2019-05-21T14:58:27.736Z,7.97
2019-05-21T15:01:01.217Z,7.00
2019-05-21T15:03:35.600Z,9.00
2019-05-21T15:06:09.034Z,5.67
2019-05-21T15:08:42.533Z,5.60
2019-05-21T15:11:15.946Z,5.13
2019-05-21T15:13:49.672Z,6.07
2019-05-21T15:16:23.163Z,5.73
2019-05-21T15:18:56.679Z,7.80
2019-05-21T15:21:31.808Z,5.90
2019-05-21T15:24:05.574Z,6.10
2019-05-21T15:26:39.175Z,5.77
2019-05-21T15:29:12.608Z,6.20
2019-05-21T15:31:46.051Z,6.30
2019-05-21T15:34:19.506Z,6.33
2019-05-21T15:36:53.059Z,7.17
2019-05-21T15:39:26.547Z,7.13
2019-05-21T15:41:59.968Z,7.00
2019-05-21T15:44:33.399Z,8.00
2019-05-21T15:47:06.906Z,8.27
2019-05-21T15:49:40.345Z,7.47
2019-05-21T15:52:13.761Z,7.37
2019-05-21T15:54:47.200Z,7.13
2019-05-21T15:57:20.619Z,7.00
2019-05-21T15:59:54.060Z,7.87
2019-05-21T16:02:27.490Z,7.60
2019-05-21T16:05:00.924Z,7.40
2019-05-21T16:07:34.709Z,7.20
2019-05-21T16:10:09.180Z,7.10
2019-05-21T16:12:42.603Z,7.33
2019-05-21T16:15:16.102Z,7.50
2019-05-21T16:17:49.532Z,7.33
2019-05-21T16:20:22.967Z,6.93
2019-05-21T16:22:56.484Z,7.30
2019-05-21T16:25:29.937Z,7.30
2019-05-21T16:28:03.355Z,6.80
2019-05-21T16:30:36.813Z,7.90
2019-05-21T16:33:10.316Z,7.10
2019-05-21T16:35:43.733Z,7.90
2019-05-21T16:38:17.198Z,7.13
2019-05-21T16:40:50.621Z,8.03
2019-05-21T16:43:24.044Z,7.13
2019-05-21T16:45:57.727Z,8.17
2019-05-21T16:48:31.161Z,7.30
2019-05-21T16:51:04.579Z,8.23
2019-05-21T16:53:38.080Z,7.33
2019-05-21T16:56:11.491Z,7.00
2019-05-21T16:58:44.918Z,7.30
2019-05-21T17:01:18.370Z,7.10
2019-05-21T17:03:59.861Z,7.83
2019-05-21T17:06:27.511Z,7.97
2019-05-21T17:09:00.947Z,7.60
2019-05-21T17:11:34.360Z,6.77
2019-05-21T17:14:07.798Z,8.90
2019-05-21T17:16:41.211Z,6.27
2019-05-21T17:19:14.643Z,5.60
2019-05-21T17:21:48.047Z,6.60
2019-05-21T17:24:21.499Z,5.97
2019-05-21T17:26:54.899Z,5.60
2019-05-21T17:29:28.871Z,5.60
2019-05-21T17:32:02.356Z,7.00
2019-05-21T17:34:35.920Z,4.70
2019-05-21T17:37:09.358Z,5.10
2019-05-21T17:39:42.792Z,6.10
2019-05-21T17:42:16.227Z,4.63
2019-05-21T17:44:49.720Z,4.53
2019-05-21T17:47:23.206Z,5.37
2019-05-21T17:49:56.632Z,5.33
2019-05-21T17:52:30.121Z,6.07
2019-05-21T17:55:05.656Z,5.60
2019-05-21T17:57:39.548Z,5.90
2019-05-21T18:00:15.656Z,5.83
2019-05-21T18:02:49.450Z,6.00
2019-05-21T18:05:22.944Z,7.23
2019-05-21T18:07:57.231Z,7.70
2019-05-21T18:10:31.471Z,7.60
2019-05-21T18:13:05.332Z,7.30
2019-05-21T18:15:38.900Z,7.97
2019-05-21T18:18:12.398Z,7.67
2019-05-21T18:20:45.891Z,8.57
2019-05-21T18:23:19.311Z,8.33
2019-05-21T18:25:52.812Z,8.40
2019-05-21T18:28:26.307Z,8.23
2019-05-21T18:30:59.743Z,8.33
2019-05-21T18:33:33.156Z,8.83
2019-05-21T18:36:06.596Z,8.90
2019-05-21T18:38:40.152Z,8.67
2019-05-21T18:41:13.598Z,8.97
2019-05-21T18:43:49.891Z,9.17
2019-05-21T18:46:22.187Z,9.80
2019-05-21T18:48:55.697Z,8.53
2019-05-21T18:51:29.188Z,9.50
2019-05-21T18:54:02.608Z,9.70
2019-05-21T18:56:36.056Z,12.03
2019-05-21T18:59:09.611Z,18.10
2019-05-21T19:01:43.048Z,10.97
2019-05-21T19:04:16.740Z,10.97
2019-05-21T19:06:50.176Z,9.43
2019-05-21T19:09:23.944Z,9.13
2019-05-21T19:11:57.384Z,10.30
2019-05-21T19:14:30.831Z,10.40
2019-05-21T19:17:04.264Z,9.33
2019-05-21T19:19:37.685Z,9.33
2019-05-21T19:22:11.187Z,9.20
2019-05-21T19:24:44.605Z,9.50
2019-05-21T19:27:18.035Z,9.70
2019-05-21T19:29:51.461Z,9.67
2019-05-21T19:32:24.963Z,10.27
2019-05-21T19:34:58.400Z,10.50
2019-05-21T19:37:31.823Z,10.93
2019-05-21T19:40:07.275Z,10.70
2019-05-21T19:42:53.804Z,9.67
2019-05-21T19:45:16.228Z,11.37
2019-05-21T19:47:49.644Z,10.30
2019-05-21T19:50:23.076Z,9.90
2019-05-21T19:52:56.524Z,11.50
2019-05-21T19:55:31.246Z,11.87
2019-05-21T19:58:05.220Z,11.43
2019-05-21T20:00:40.364Z,11.20
2019-05-21T20:03:13.806Z,12.00
2019-05-21T20:05:48.439Z,10.70
2019-05-21T20:08:21.968Z,10.80
2019-05-21T20:10:56.242Z,11.23
2019-05-21T20:13:32.533Z,11.80
2019-05-21T20:16:06.242Z,11.90
2019-05-21T20:18:40.120Z,11.97
2019-05-21T20:21:15.659Z,11.97
2019-05-21T20:23:49.126Z,11.43
2019-05-21T20:26:24.903Z,11.17
2019-05-21T20:28:59.456Z,12.43
2019-05-21T20:31:33.626Z,12.40
2019-05-21T20:34:07.492Z,12.63
2019-05-21T20:36:41.018Z,11.43
2019-05-21T20:39:16.236Z,12.50
2019-05-21T20:41:49.852Z,12.13
2019-05-21T20:44:24.107Z,12.30
2019-05-21T20:46:58.961Z,12.07
2019-05-21T20:49:32.615Z,12.40
2019-05-21T20:52:18.244Z,12.70
2019-05-21T20:54:44.350Z,12.63
2019-05-21T20:57:18.824Z,12.57
2019-05-21T20:59:52.787Z,12.70
2019-05-21T21:02:26.668Z,12.83
2019-05-21T21:05:00.865Z,12.97
2019-05-21T21:07:34.435Z,12.97
2019-05-21T21:10:09.572Z,12.97
2019-05-21T21:12:44.715Z,12.27
2019-05-21T21:15:18.676Z,13.47
2019-05-21T21:17:52.548Z,12.93
2019-05-21T21:20:25.965Z,13.10
2019-05-21T21:22:59.408Z,13.17
2019-05-21T21:25:33.105Z,13.03
2019-05-21T21:28:07.003Z,13.40
2019-05-21T21:30:40.612Z,12.83
2019-05-21T21:33:15.120Z,13.00
2019-05-21T21:35:48.573Z,13.90
2019-05-21T21:38:23.716Z,12.97
2019-05-21T21:40:57.342Z,13.03
2019-05-21T21:43:30.765Z,13.33
2019-05-21T21:46:04.193Z,14.00
2019-05-21T21:48:37.904Z,13.93
2019-05-21T21:51:13.033Z,13.03
2019-05-21T21:53:46.745Z,14.07
2019-05-21T21:56:20.377Z,14.07
2019-05-21T21:58:53.978Z,13.67
2019-05-21T22:01:32.115Z,14.27
2019-05-21T22:04:07.255Z,13.90
2019-05-21T22:06:43.903Z,14.93
2019-05-21T22:09:19.450Z,14.60
2019-05-21T22:11:53.244Z,13.60
2019-05-21T22:14:27.113Z,14.90
2019-05-21T22:17:01.384Z,14.63
2019-05-21T22:19:35.276Z,14.17
2019-05-21T22:22:10.715Z,15.17
2019-05-21T22:24:44.186Z,15.27
2019-05-21T22:27:18.012Z,14.67
2019-05-21T22:29:51.448Z,14.87
2019-05-21T22:32:25.439Z,14.80
2019-05-21T22:34:58.872Z,14.93
2019-05-21T22:37:32.387Z,15.40
2019-05-21T22:40:08.431Z,15.27
2019-05-21T22:42:41.858Z,15.80
2019-05-21T22:45:15.424Z,15.17
2019-05-21T22:47:48.882Z,14.90
2019-05-21T22:50:22.309Z,15.10
2019-05-21T22:52:55.768Z,15.17
2019-05-21T22:55:29.188Z,16.43
2019-05-21T22:58:02.627Z,15.90
2019-05-21T23:00:36.120Z,16.07
2019-05-21T23:03:09.567Z,15.87
2019-05-21T23:05:42.975Z,15.63
2019-05-21T23:08:17.681Z,14.97
2019-05-21T23:10:51.116Z,16.27
2019-05-21T23:13:24.556Z,15.87
2019-05-21T23:15:58.818Z,16.07
2019-05-21T23:18:33.287Z,16.03
2019-05-21T23:21:08.344Z,17.73
2019-05-21T23:23:43.692Z,18.33
2019-05-21T23:26:18.270Z,17.93
2019-05-21T23:28:52.344Z,17.77
2019-05-21T23:31:26.239Z,16.37
2019-05-21T23:34:00.447Z,16.23
2019-05-21T23:36:34.316Z,17.80
2019-05-21T23:39:09.392Z,17.47
2019-05-21T23:41:44.361Z,16.90
2019-05-21T23:44:18.299Z,18.00
2019-05-21T23:46:51.792Z,16.50
2019-05-21T23:49:25.233Z,17.57
2019-05-21T23:51:58.744Z,17.20
2019-05-21T23:54:32.180Z,17.83
2019-05-21T23:57:07.250Z,16.70
2019-05-21T23:59:40.762Z,17.60
